To NAV CANADA Home Page Login to a new session Search on AWWS site Disclaimer Vers la page française équivalente Tips FAQ What's new on the site To the Forecasts and Observations / NOTAM section To "File a Flight Plan" website Publications and other links Update of the User's profile FIC Telephone Numbers My Weather Data Folder Route Weather Data Regional Weather Data Local Weather Data To the Forecasts and Observations / NOTAM section
Request Generated 04/22/2019 at 12:47:44 UTC . Weather information available at that time is displayed.

METAR/TAF

IQALUIT/NU    

METAR CYFB 221200Z 33018KT 30SM DRSN FEW020 SCT140 BKN240 M21/M25 A2994 RMK SC1AC3CI2 SLP143=
METAR CYFB 221100Z 33017KT 30SM DRSN FEW020 FEW150 BKN260 M22/M26 A2993 RMK SC1AC2CI4 SC TR SLP142=
METAR CYFB 221000Z 33019KT 30SM DRSN FEW020 SCT160 BKN230 M24/M28 A2992 RMK SC1AC3CI2 SC TR SLP138=

TAF CYFB 221138Z 2212/2312 33018KT P6SM FEW020 SCT150 BKN240
FM221500 32015KT P6SM -SN SCT025 BKN140 TEMPO 2215/2306 6SM -SN
BKN020
FM230600 31017KT P6SM BKN025
RMK NXT FCST BY 221800Z=
Your time UTC time
Weather data provided by Environment Canada and NAV CANADA